sensor_id;sensor_type;location;lat;lon;timestamp;P1;durP1;ratioP1;P2;durP2;ratioP2
34212;SDS011;20477;51.390;8.102;2023-05-10T00:00:48;4.13;;;2.08;;
34212;SDS011;20477;51.390;8.102;2023-05-10T00:03:16;4.07;;;1.40;;
34212;SDS011;20477;51.390;8.102;2023-05-10T00:05:45;2.72;;;1.20;;
34212;SDS011;20477;51.390;8.102;2023-05-10T00:08:13;2.03;;;1.15;;
34212;SDS011;20477;51.390;8.102;2023-05-10T00:10:42;4.95;;;0.82;;
34212;SDS011;20477;51.390;8.102;2023-05-10T00:13:11;3.78;;;1.02;;
34212;SDS011;20477;51.390;8.102;2023-05-10T00:15:39;7.80;;;1.15;;
34212;SDS011;20477;51.390;8.102;2023-05-10T00:18:07;6.20;;;1.00;;
34212;SDS011;20477;51.390;8.102;2023-05-10T00:20:35;1.60;;;0.80;;
34212;SDS011;20477;51.390;8.102;2023-05-10T00:23:05;1.27;;;0.60;;
34212;SDS011;20477;51.390;8.102;2023-05-10T00:25:33;1.50;;;0.60;;
34212;SDS011;20477;51.390;8.102;2023-05-10T00:28:01;2.67;;;0.60;;
34212;SDS011;20477;51.390;8.102;2023-05-10T00:30:29;1.02;;;0.60;;
34212;SDS011;20477;51.390;8.102;2023-05-10T00:32:57;3.83;;;0.80;;
34212;SDS011;20477;51.390;8.102;2023-05-10T00:35:25;7.13;;;0.75;;
34212;SDS011;20477;51.390;8.102;2023-05-10T00:37:53;1.60;;;1.00;;
34212;SDS011;20477;51.390;8.102;2023-05-10T00:40:23;3.03;;;1.00;;
34212;SDS011;20477;51.390;8.102;2023-05-10T00:42:51;1.42;;;0.60;;
34212;SDS011;20477;51.390;8.102;2023-05-10T00:45:19;0.40;;;0.40;;
34212;SDS011;20477;51.390;8.102;2023-05-10T00:47:47;1.05;;;0.50;;
34212;SDS011;20477;51.390;8.102;2023-05-10T00:50:16;0.98;;;0.75;;
34212;SDS011;20477;51.390;8.102;2023-05-10T00:52:44;2.55;;;0.52;;
34212;SDS011;20477;51.390;8.102;2023-05-10T00:55:12;0.50;;;0.47;;
34212;SDS011;20477;51.390;8.102;2023-05-10T00:57:42;0.60;;;0.60;;
34212;SDS011;20477;51.390;8.102;2023-05-10T01:00:10;0.73;;;0.50;;
34212;SDS011;20477;51.390;8.102;2023-05-10T01:02:44;1.00;;;0.70;;
34212;SDS011;20477;51.390;8.102;2023-05-10T01:05:12;0.68;;;0.50;;
34212;SDS011;20477;51.390;8.102;2023-05-10T01:07:41;5.15;;;0.65;;
34212;SDS011;20477;51.390;8.102;2023-05-10T01:10:09;2.22;;;0.73;;
34212;SDS011;20477;51.390;8.102;2023-05-10T01:12:38;2.35;;;0.70;;
34212;SDS011;20477;51.390;8.102;2023-05-10T01:15:09;2.80;;;0.60;;
34212;SDS011;20477;51.390;8.102;2023-05-10T01:17:38;2.03;;;0.60;;
34212;SDS011;20477;51.390;8.102;2023-05-10T01:20:08;0.50;;;0.50;;
34212;SDS011;20477;51.390;8.102;2023-05-10T01:25:32;2.60;;;0.50;;
34212;SDS011;20477;51.390;8.102;2023-05-10T01:28:34;0.73;;;0.65;;
34212;SDS011;20477;51.390;8.102;2023-05-10T01:34:03;1.95;;;0.50;;
34212;SDS011;20477;51.390;8.102;2023-05-10T01:36:35;3.72;;;0.50;;
34212;SDS011;20477;51.390;8.102;2023-05-10T01:39:08;4.55;;;0.77;;
34212;SDS011;20477;51.390;8.102;2023-05-10T01:41:39;0.90;;;0.80;;
34212;SDS011;20477;51.390;8.102;2023-05-10T01:44:16;0.43;;;0.43;;
34212;SDS011;20477;51.390;8.102;2023-05-10T01:46:47;0.90;;;0.50;;
34212;SDS011;20477;51.390;8.102;2023-05-10T01:49:31;0.73;;;0.50;;
34212;SDS011;20477;51.390;8.102;2023-05-10T01:52:03;1.83;;;0.70;;
34212;SDS011;20477;51.390;8.102;2023-05-10T01:54:35;3.53;;;0.75;;
34212;SDS011;20477;51.390;8.102;2023-05-10T01:57:05;0.93;;;0.60;;
34212;SDS011;20477;51.390;8.102;2023-05-10T01:59:35;0.80;;;0.63;;
34212;SDS011;20477;51.390;8.102;2023-05-10T02:02:07;1.75;;;0.90;;
34212;SDS011;20477;51.390;8.102;2023-05-10T02:04:39;0.60;;;0.60;;
34212;SDS011;20477;51.390;8.102;2023-05-10T02:07:08;1.98;;;0.57;;
34212;SDS011;20477;51.390;8.102;2023-05-10T02:09:37;0.50;;;0.50;;
34212;SDS011;20477;51.390;8.102;2023-05-10T02:12:06;3.40;;;0.60;;
34212;SDS011;20477;51.390;8.102;2023-05-10T02:14:35;1.13;;;0.75;;
34212;SDS011;20477;51.390;8.102;2023-05-10T02:17:04;3.03;;;0.60;;
34212;SDS011;20477;51.390;8.102;2023-05-10T02:19:34;1.35;;;0.50;;
34212;SDS011;20477;51.390;8.102;2023-05-10T02:22:04;0.50;;;0.50;;
34212;SDS011;20477;51.390;8.102;2023-05-10T02:24:34;0.80;;;0.57;;
34212;SDS011;20477;51.390;8.102;2023-05-10T02:27:03;2.50;;;0.60;;
34212;SDS011;20477;51.390;8.102;2023-05-10T02:29:32;2.67;;;0.70;;
34212;SDS011;20477;51.390;8.102;2023-05-10T02:32:01;2.38;;;0.50;;
34212;SDS011;20477;51.390;8.102;2023-05-10T02:34:29;4.85;;;0.85;;
34212;SDS011;20477;51.390;8.102;2023-05-10T02:36:58;3.30;;;0.65;;
34212;SDS011;20477;51.390;8.102;2023-05-10T02:39:28;1.35;;;0.77;;
34212;SDS011;20477;51.390;8.102;2023-05-10T02:41:57;1.10;;;0.70;;
34212;SDS011;20477;51.390;8.102;2023-05-10T02:44:26;1.60;;;0.90;;
34212;SDS011;20477;51.390;8.102;2023-05-10T02:46:57;0.88;;;0.82;;
34212;SDS011;20477;51.390;8.102;2023-05-10T02:49:26;1.05;;;0.95;;
34212;SDS011;20477;51.390;8.102;2023-05-10T02:51:55;0.85;;;0.82;;
34212;SDS011;20477;51.390;8.102;2023-05-10T02:54:27;2.22;;;1.42;;
34212;SDS011;20477;51.390;8.102;2023-05-10T02:57:00;2.42;;;1.42;;
34212;SDS011;20477;51.390;8.102;2023-05-10T02:59:31;3.35;;;1.50;;
34212;SDS011;20477;51.390;8.102;2023-05-10T03:01:59;4.57;;;1.70;;
34212;SDS011;20477;51.390;8.102;2023-05-10T03:04:28;4.63;;;2.22;;
34212;SDS011;20477;51.390;8.102;2023-05-10T03:06:56;3.17;;;2.38;;
34212;SDS011;20477;51.390;8.102;2023-05-10T03:09:25;4.32;;;2.33;;
34212;SDS011;20477;51.390;8.102;2023-05-10T03:11:56;5.07;;;2.50;;
34212;SDS011;20477;51.390;8.102;2023-05-10T03:14:34;3.72;;;2.75;;
34212;SDS011;20477;51.390;8.102;2023-05-10T03:17:11;5.20;;;2.80;;
34212;SDS011;20477;51.390;8.102;2023-05-10T03:19:43;6.90;;;2.77;;
34212;SDS011;20477;51.390;8.102;2023-05-10T03:22:17;3.38;;;2.33;;
34212;SDS011;20477;51.390;8.102;2023-05-10T03:24:50;5.32;;;3.30;;
34212;SDS011;20477;51.390;8.102;2023-05-10T03:27:22;4.32;;;3.90;;
34212;SDS011;20477;51.390;8.102;2023-05-10T03:29:50;4.03;;;2.75;;
34212;SDS011;20477;51.390;8.102;2023-05-10T03:32:18;5.57;;;2.80;;
34212;SDS011;20477;51.390;8.102;2023-05-10T03:34:47;2.92;;;2.60;;
34212;SDS011;20477;51.390;8.102;2023-05-10T03:37:15;4.85;;;2.75;;
34212;SDS011;20477;51.390;8.102;2023-05-10T03:39:43;3.45;;;2.45;;
34212;SDS011;20477;51.390;8.102;2023-05-10T03:42:11;3.47;;;2.30;;
34212;SDS011;20477;51.390;8.102;2023-05-10T03:44:40;3.17;;;2.13;;
34212;SDS011;20477;51.390;8.102;2023-05-10T03:47:09;2.63;;;2.42;;
34212;SDS011;20477;51.390;8.102;2023-05-10T03:49:37;4.82;;;2.42;;
34212;SDS011;20477;51.390;8.102;2023-05-10T03:52:05;5.22;;;2.58;;
34212;SDS011;20477;51.390;8.102;2023-05-10T03:54:33;2.60;;;2.38;;
34212;SDS011;20477;51.390;8.102;2023-05-10T03:57:01;3.30;;;2.20;;
34212;SDS011;20477;51.390;8.102;2023-05-10T03:59:30;3.25;;;2.72;;
34212;SDS011;20477;51.390;8.102;2023-05-10T04:01:59;3.10;;;2.70;;
34212;SDS011;20477;51.390;8.102;2023-05-10T04:04:27;5.32;;;3.38;;
34212;SDS011;20477;51.390;8.102;2023-05-10T04:06:56;3.28;;;2.35;;
34212;SDS011;20477;51.390;8.102;2023-05-10T04:09:24;6.47;;;2.75;;
34212;SDS011;20477;51.390;8.102;2023-05-10T04:11:52;2.50;;;2.30;;
34212;SDS011;20477;51.390;8.102;2023-05-10T04:14:20;5.28;;;3.30;;
34212;SDS011;20477;51.390;8.102;2023-05-10T04:16:48;4.43;;;2.92;;
34212;SDS011;20477;51.390;8.102;2023-05-10T04:19:17;7.20;;;3.65;;
34212;SDS011;20477;51.390;8.102;2023-05-10T04:21:46;3.97;;;3.58;;
34212;SDS011;20477;51.390;8.102;2023-05-10T04:24:14;3.53;;;3.22;;
34212;SDS011;20477;51.390;8.102;2023-05-10T04:26:42;5.28;;;4.53;;
34212;SDS011;20477;51.390;8.102;2023-05-10T04:29:11;6.13;;;5.20;;
34212;SDS011;20477;51.390;8.102;2023-05-10T04:31:39;10.88;;;5.05;;
34212;SDS011;20477;51.390;8.102;2023-05-10T04:34:07;6.55;;;5.03;;
34212;SDS011;20477;51.390;8.102;2023-05-10T04:36:37;4.63;;;3.95;;
34212;SDS011;20477;51.390;8.102;2023-05-10T04:39:05;4.45;;;4.00;;
34212;SDS011;20477;51.390;8.102;2023-05-10T04:41:33;6.63;;;3.90;;
34212;SDS011;20477;51.390;8.102;2023-05-10T04:44:01;4.18;;;3.03;;
34212;SDS011;20477;51.390;8.102;2023-05-10T04:46:30;4.60;;;3.38;;
34212;SDS011;20477;51.390;8.102;2023-05-10T04:48:58;3.67;;;3.28;;
34212;SDS011;20477;51.390;8.102;2023-05-10T04:51:26;5.95;;;2.45;;
34212;SDS011;20477;51.390;8.102;2023-05-10T04:53:56;3.97;;;2.67;;
34212;SDS011;20477;51.390;8.102;2023-05-10T04:56:32;4.13;;;2.10;;
34212;SDS011;20477;51.390;8.102;2023-05-10T04:59:00;6.00;;;2.72;;
34212;SDS011;20477;51.390;8.102;2023-05-10T05:01:28;6.32;;;2.47;;
34212;SDS011;20477;51.390;8.102;2023-05-10T05:03:57;3.35;;;2.15;;
34212;SDS011;20477;51.390;8.102;2023-05-10T05:06:25;6.50;;;2.28;;
34212;SDS011;20477;51.390;8.102;2023-05-10T05:08:53;3.70;;;2.00;;
34212;SDS011;20477;51.390;8.102;2023-05-10T05:11:23;1.58;;;1.48;;
34212;SDS011;20477;51.390;8.102;2023-05-10T05:13:52;4.72;;;2.10;;
34212;SDS011;20477;51.390;8.102;2023-05-10T05:16:20;4.10;;;1.60;;
34212;SDS011;20477;51.390;8.102;2023-05-10T05:18:48;5.43;;;1.80;;
34212;SDS011;20477;51.390;8.102;2023-05-10T05:21:16;2.92;;;2.00;;
34212;SDS011;20477;51.390;8.102;2023-05-10T05:23:45;4.38;;;1.85;;
34212;SDS011;20477;51.390;8.102;2023-05-10T05:26:15;3.58;;;1.73;;
34212;SDS011;20477;51.390;8.102;2023-05-10T05:28:43;5.45;;;2.60;;
34212;SDS011;20477;51.390;8.102;2023-05-10T05:31:11;5.43;;;2.42;;
34212;SDS011;20477;51.390;8.102;2023-05-10T05:33:40;9.35;;;2.00;;
34212;SDS011;20477;51.390;8.102;2023-05-10T05:36:09;2.92;;;2.10;;
34212;SDS011;20477;51.390;8.102;2023-05-10T05:38:37;3.40;;;1.92;;
34212;SDS011;20477;51.390;8.102;2023-05-10T05:41:05;4.22;;;1.98;;
34212;SDS011;20477;51.390;8.102;2023-05-10T05:43:35;7.55;;;2.35;;
34212;SDS011;20477;51.390;8.102;2023-05-10T05:46:04;4.13;;;2.28;;
34212;SDS011;20477;51.390;8.102;2023-05-10T05:48:32;10.65;;;5.20;;
34212;SDS011;20477;51.390;8.102;2023-05-10T05:51:00;5.82;;;3.08;;
34212;SDS011;20477;51.390;8.102;2023-05-10T05:53:31;3.83;;;2.25;;
34212;SDS011;20477;51.390;8.102;2023-05-10T05:56:00;4.32;;;2.38;;
34212;SDS011;20477;51.390;8.102;2023-05-10T05:58:28;6.40;;;2.40;;
34212;SDS011;20477;51.390;8.102;2023-05-10T06:00:57;4.63;;;2.92;;
34212;SDS011;20477;51.390;8.102;2023-05-10T06:03:25;6.03;;;2.83;;
34212;SDS011;20477;51.390;8.102;2023-05-10T06:05:54;5.97;;;3.42;;
34212;SDS011;20477;51.390;8.102;2023-05-10T06:08:22;4.93;;;2.65;;
34212;SDS011;20477;51.390;8.102;2023-05-10T06:10:50;6.22;;;3.28;;
34212;SDS011;20477;51.390;8.102;2023-05-10T06:13:18;4.53;;;3.20;;
34212;SDS011;20477;51.390;8.102;2023-05-10T06:15:47;7.00;;;3.63;;
34212;SDS011;20477;51.390;8.102;2023-05-10T06:18:16;8.50;;;4.00;;
34212;SDS011;20477;51.390;8.102;2023-05-10T06:20:45;6.45;;;3.75;;
34212;SDS011;20477;51.390;8.102;2023-05-10T06:23:13;5.68;;;4.57;;
34212;SDS011;20477;51.390;8.102;2023-05-10T06:25:41;8.38;;;3.97;;
34212;SDS011;20477;51.390;8.102;2023-05-10T06:28:09;5.28;;;4.32;;
34212;SDS011;20477;51.390;8.102;2023-05-10T06:30:37;8.40;;;4.22;;
34212;SDS011;20477;51.390;8.102;2023-05-10T06:33:05;8.95;;;4.63;;
34212;SDS011;20477;51.390;8.102;2023-05-10T06:35:35;5.13;;;4.15;;
34212;SDS011;20477;51.390;8.102;2023-05-10T06:38:03;6.45;;;4.50;;
34212;SDS011;20477;51.390;8.102;2023-05-10T06:40:31;8.98;;;4.82;;
34212;SDS011;20477;51.390;8.102;2023-05-10T06:42:59;14.93;;;5.03;;
34212;SDS011;20477;51.390;8.102;2023-05-10T06:45:27;11.45;;;5.30;;
34212;SDS011;20477;51.390;8.102;2023-05-10T06:47:55;6.95;;;5.03;;
34212;SDS011;20477;51.390;8.102;2023-05-10T06:50:24;13.43;;;5.90;;
34212;SDS011;20477;51.390;8.102;2023-05-10T06:52:53;10.15;;;6.05;;
34212;SDS011;20477;51.390;8.102;2023-05-10T06:55:21;9.60;;;6.97;;
34212;SDS011;20477;51.390;8.102;2023-05-10T06:57:49;10.18;;;6.88;;
34212;SDS011;20477;51.390;8.102;2023-05-10T07:00:18;9.68;;;6.95;;
34212;SDS011;20477;51.390;8.102;2023-05-10T07:02:47;9.00;;;6.97;;
34212;SDS011;20477;51.390;8.102;2023-05-10T07:05:15;10.85;;;7.30;;
34212;SDS011;20477;51.390;8.102;2023-05-10T07:07:44;10.02;;;7.32;;
34212;SDS011;20477;51.390;8.102;2023-05-10T07:10:13;12.15;;;7.50;;
34212;SDS011;20477;51.390;8.102;2023-05-10T07:12:41;16.92;;;7.78;;
34212;SDS011;20477;51.390;8.102;2023-05-10T07:15:10;12.90;;;7.40;;
34212;SDS011;20477;51.390;8.102;2023-05-10T07:17:38;13.00;;;8.18;;
34212;SDS011;20477;51.390;8.102;2023-05-10T07:20:10;13.98;;;8.25;;
34212;SDS011;20477;51.390;8.102;2023-05-10T07:22:39;10.55;;;8.20;;
34212;SDS011;20477;51.390;8.102;2023-05-10T07:25:07;12.48;;;8.60;;
34212;SDS011;20477;51.390;8.102;2023-05-10T07:27:37;17.77;;;9.02;;
34212;SDS011;20477;51.390;8.102;2023-05-10T07:30:05;16.48;;;9.25;;
34212;SDS011;20477;51.390;8.102;2023-05-10T07:32:34;14.27;;;10.10;;
34212;SDS011;20477;51.390;8.102;2023-05-10T07:35:03;15.02;;;10.70;;
34212;SDS011;20477;51.390;8.102;2023-05-10T07:37:31;19.75;;;12.13;;
34212;SDS011;20477;51.390;8.102;2023-05-10T07:39:59;14.95;;;10.88;;
34212;SDS011;20477;51.390;8.102;2023-05-10T07:42:28;20.08;;;11.10;;
34212;SDS011;20477;51.390;8.102;2023-05-10T07:44:57;18.10;;;11.00;;
34212;SDS011;20477;51.390;8.102;2023-05-10T07:47:25;19.10;;;11.60;;
34212;SDS011;20477;51.390;8.102;2023-05-10T07:49:53;20.27;;;12.27;;
34212;SDS011;20477;51.390;8.102;2023-05-10T07:52:22;16.58;;;12.30;;
34212;SDS011;20477;51.390;8.102;2023-05-10T07:54:50;15.55;;;11.05;;
34212;SDS011;20477;51.390;8.102;2023-05-10T07:57:18;17.73;;;13.25;;
34212;SDS011;20477;51.390;8.102;2023-05-10T07:59:46;19.15;;;12.82;;
34212;SDS011;20477;51.390;8.102;2023-05-10T08:02:16;18.15;;;12.75;;
34212;SDS011;20477;51.390;8.102;2023-05-10T08:04:44;16.95;;;12.68;;
34212;SDS011;20477;51.390;8.102;2023-05-10T08:07:12;20.35;;;11.38;;
34212;SDS011;20477;51.390;8.102;2023-05-10T08:09:40;22.30;;;13.05;;
34212;SDS011;20477;51.390;8.102;2023-05-10T08:12:08;16.75;;;12.77;;
34212;SDS011;20477;51.390;8.102;2023-05-10T08:14:36;16.23;;;11.85;;
34212;SDS011;20477;51.390;8.102;2023-05-10T08:17:04;17.95;;;11.85;;
34212;SDS011;20477;51.390;8.102;2023-05-10T08:19:34;19.45;;;12.38;;
34212;SDS011;20477;51.390;8.102;2023-05-10T08:22:02;17.80;;;11.60;;
34212;SDS011;20477;51.390;8.102;2023-05-10T08:24:30;15.57;;;11.02;;
34212;SDS011;20477;51.390;8.102;2023-05-10T08:26:58;16.83;;;11.55;;
34212;SDS011;20477;51.390;8.102;2023-05-10T08:29:27;17.42;;;11.45;;
34212;SDS011;20477;51.390;8.102;2023-05-10T08:32:00;15.32;;;10.50;;
34212;SDS011;20477;51.390;8.102;2023-05-10T08:34:28;15.77;;;10.30;;
34212;SDS011;20477;51.390;8.102;2023-05-10T08:36:58;15.52;;;10.30;;
34212;SDS011;20477;51.390;8.102;2023-05-10T08:39:27;21.42;;;10.27;;
34212;SDS011;20477;51.390;8.102;2023-05-10T08:41:57;17.70;;;10.70;;
34212;SDS011;20477;51.390;8.102;2023-05-10T08:44:27;15.18;;;10.15;;
34212;SDS011;20477;51.390;8.102;2023-05-10T08:46:56;16.77;;;10.73;;
34212;SDS011;20477;51.390;8.102;2023-05-10T08:49:25;16.38;;;9.82;;
34212;SDS011;20477;51.390;8.102;2023-05-10T08:51:55;18.23;;;11.00;;
34212;SDS011;20477;51.390;8.102;2023-05-10T08:54:25;18.45;;;9.93;;
34212;SDS011;20477;51.390;8.102;2023-05-10T08:56:53;15.32;;;9.43;;
34212;SDS011;20477;51.390;8.102;2023-05-10T08:59:22;14.90;;;9.95;;
34212;SDS011;20477;51.390;8.102;2023-05-10T09:01:50;16.65;;;9.27;;
34212;SDS011;20477;51.390;8.102;2023-05-10T09:04:19;14.80;;;9.27;;
34212;SDS011;20477;51.390;8.102;2023-05-10T09:06:49;14.15;;;9.18;;
34212;SDS011;20477;51.390;8.102;2023-05-10T09:09:17;12.50;;;8.30;;
34212;SDS011;20477;51.390;8.102;2023-05-10T09:11:47;17.55;;;8.18;;
34212;SDS011;20477;51.390;8.102;2023-05-10T09:14:15;17.90;;;13.60;;
34212;SDS011;20477;51.390;8.102;2023-05-10T09:16:43;23.42;;;13.60;;
34212;SDS011;20477;51.390;8.102;2023-05-10T09:19:12;21.95;;;13.77;;
34212;SDS011;20477;51.390;8.102;2023-05-10T09:21:40;22.52;;;14.40;;
34212;SDS011;20477;51.390;8.102;2023-05-10T09:24:08;30.75;;;13.48;;
34212;SDS011;20477;51.390;8.102;2023-05-10T09:26:40;18.73;;;12.43;;
34212;SDS011;20477;51.390;8.102;2023-05-10T09:29:15;16.58;;;10.95;;
34212;SDS011;20477;51.390;8.102;2023-05-10T09:31:44;14.98;;;10.65;;
34212;SDS011;20477;51.390;8.102;2023-05-10T09:34:17;18.50;;;11.65;;
34212;SDS011;20477;51.390;8.102;2023-05-10T09:36:57;16.80;;;11.15;;
34212;SDS011;20477;51.390;8.102;2023-05-10T09:39:31;20.83;;;10.80;;
34212;SDS011;20477;51.390;8.102;2023-05-10T09:42:02;18.13;;;12.33;;
34212;SDS011;20477;51.390;8.102;2023-05-10T09:44:31;16.90;;;10.85;;
34212;SDS011;20477;51.390;8.102;2023-05-10T09:47:00;11.35;;;7.35;;
34212;SDS011;20477;51.390;8.102;2023-05-10T09:49:28;9.65;;;5.70;;
34212;SDS011;20477;51.390;8.102;2023-05-10T09:52:00;12.15;;;5.18;;
34212;SDS011;20477;51.390;8.102;2023-05-10T09:54:30;7.10;;;4.55;;
34212;SDS011;20477;51.390;8.102;2023-05-10T09:56:58;9.05;;;4.10;;
34212;SDS011;20477;51.390;8.102;2023-05-10T09:59:28;10.00;;;4.80;;
34212;SDS011;20477;51.390;8.102;2023-05-10T10:01:57;11.10;;;5.70;;
34212;SDS011;20477;51.390;8.102;2023-05-10T10:04:26;7.10;;;4.82;;
34212;SDS011;20477;51.390;8.102;2023-05-10T10:06:58;8.60;;;4.80;;
34212;SDS011;20477;51.390;8.102;2023-05-10T10:09:28;8.75;;;5.18;;
34212;SDS011;20477;51.390;8.102;2023-05-10T10:11:56;14.98;;;7.78;;
34212;SDS011;20477;51.390;8.102;2023-05-10T10:14:26;18.13;;;7.40;;
34212;SDS011;20477;51.390;8.102;2023-05-10T10:16:55;17.70;;;8.23;;
34212;SDS011;20477;51.390;8.102;2023-05-10T10:19:33;16.17;;;7.25;;
34212;SDS011;20477;51.390;8.102;2023-05-10T10:22:03;16.40;;;7.90;;
34212;SDS011;20477;51.390;8.102;2023-05-10T10:24:32;13.52;;;7.00;;
34212;SDS011;20477;51.390;8.102;2023-05-10T10:27:02;13.50;;;7.07;;
34212;SDS011;20477;51.390;8.102;2023-05-10T10:29:39;15.85;;;8.55;;
34212;SDS011;20477;51.390;8.102;2023-05-10T10:32:16;21.05;;;8.88;;
34212;SDS011;20477;51.390;8.102;2023-05-10T10:34:49;13.27;;;8.80;;
34212;SDS011;20477;51.390;8.102;2023-05-10T10:37:17;16.38;;;10.02;;
34212;SDS011;20477;51.390;8.102;2023-05-10T10:39:47;16.27;;;9.95;;
34212;SDS011;20477;51.390;8.102;2023-05-10T10:45:24;16.95;;;10.07;;
34212;SDS011;20477;51.390;8.102;2023-05-10T10:50:52;14.35;;;9.90;;
34212;SDS011;20477;51.390;8.102;2023-05-10T10:53:25;14.68;;;8.43;;
34212;SDS011;20477;51.390;8.102;2023-05-10T10:56:02;12.80;;;8.50;;
34212;SDS011;20477;51.390;8.102;2023-05-10T10:58:34;10.77;;;5.72;;
34212;SDS011;20477;51.390;8.102;2023-05-10T11:01:11;9.10;;;4.78;;
34212;SDS011;20477;51.390;8.102;2023-05-10T11:03:41;6.30;;;4.15;;
34212;SDS011;20477;51.390;8.102;2023-05-10T11:06:42;8.48;;;4.32;;
34212;SDS011;20477;51.390;8.102;2023-05-10T11:09:11;6.10;;;3.72;;
34212;SDS011;20477;51.390;8.102;2023-05-10T11:11:50;8.30;;;4.40;;
34212;SDS011;20477;51.390;8.102;2023-05-10T11:14:21;9.40;;;4.22;;
34212;SDS011;20477;51.390;8.102;2023-05-10T11:16:51;5.47;;;4.00;;
34212;SDS011;20477;51.390;8.102;2023-05-10T11:19:19;5.95;;;4.15;;
34212;SDS011;20477;51.390;8.102;2023-05-10T11:21:48;10.32;;;4.75;;
34212;SDS011;20477;51.390;8.102;2023-05-10T11:24:17;8.52;;;4.32;;
34212;SDS011;20477;51.390;8.102;2023-05-10T11:26:49;10.13;;;4.68;;
34212;SDS011;20477;51.390;8.102;2023-05-10T11:29:17;7.32;;;3.97;;
34212;SDS011;20477;51.390;8.102;2023-05-10T11:31:46;6.90;;;3.85;;
34212;SDS011;20477;51.390;8.102;2023-05-10T11:34:26;10.93;;;4.68;;
34212;SDS011;20477;51.390;8.102;2023-05-10T11:36:56;10.40;;;5.78;;
34212;SDS011;20477;51.390;8.102;2023-05-10T11:39:25;9.52;;;5.93;;
34212;SDS011;20477;51.390;8.102;2023-05-10T11:41:54;7.13;;;5.18;;
34212;SDS011;20477;51.390;8.102;2023-05-10T11:44:22;5.65;;;4.65;;
34212;SDS011;20477;51.390;8.102;2023-05-10T11:46:50;13.02;;;5.90;;
34212;SDS011;20477;51.390;8.102;2023-05-10T11:49:18;9.65;;;5.35;;
34212;SDS011;20477;51.390;8.102;2023-05-10T11:51:48;8.68;;;6.18;;
34212;SDS011;20477;51.390;8.102;2023-05-10T11:54:16;10.50;;;5.43;;
34212;SDS011;20477;51.390;8.102;2023-05-10T11:56:44;12.50;;;5.68;;
34212;SDS011;20477;51.390;8.102;2023-05-10T11:59:13;6.90;;;4.05;;
34212;SDS011;20477;51.390;8.102;2023-05-10T12:01:42;13.77;;;4.72;;
34212;SDS011;20477;51.390;8.102;2023-05-10T12:04:10;6.20;;;4.63;;
34212;SDS011;20477;51.390;8.102;2023-05-10T12:06:39;7.90;;;4.25;;
34212;SDS011;20477;51.390;8.102;2023-05-10T12:09:09;5.43;;;3.97;;
34212;SDS011;20477;51.390;8.102;2023-05-10T12:11:38;9.07;;;4.20;;
34212;SDS011;20477;51.390;8.102;2023-05-10T12:14:09;7.28;;;4.55;;
34212;SDS011;20477;51.390;8.102;2023-05-10T12:16:38;8.95;;;4.35;;
34212;SDS011;20477;51.390;8.102;2023-05-10T12:19:06;8.45;;;3.67;;
34212;SDS011;20477;51.390;8.102;2023-05-10T12:21:34;10.38;;;4.22;;
34212;SDS011;20477;51.390;8.102;2023-05-10T12:24:05;6.00;;;3.97;;
34212;SDS011;20477;51.390;8.102;2023-05-10T12:26:34;4.53;;;3.28;;
34212;SDS011;20477;51.390;8.102;2023-05-10T12:29:12;6.63;;;4.28;;
34212;SDS011;20477;51.390;8.102;2023-05-10T12:34:30;7.53;;;4.68;;
34212;SDS011;20477;51.390;8.102;2023-05-10T12:36:59;9.13;;;5.00;;
34212;SDS011;20477;51.390;8.102;2023-05-10T12:39:37;7.93;;;6.10;;
34212;SDS011;20477;51.390;8.102;2023-05-10T12:42:08;11.95;;;6.97;;
34212;SDS011;20477;51.390;8.102;2023-05-10T12:44:36;12.00;;;8.18;;
34212;SDS011;20477;51.390;8.102;2023-05-10T12:47:05;17.40;;;10.30;;
34212;SDS011;20477;51.390;8.102;2023-05-10T12:49:33;17.60;;;10.52;;
34212;SDS011;20477;51.390;8.102;2023-05-10T12:52:01;17.30;;;10.60;;
34212;SDS011;20477;51.390;8.102;2023-05-10T12:54:29;14.25;;;8.70;;
34212;SDS011;20477;51.390;8.102;2023-05-10T12:56:57;17.25;;;9.38;;
34212;SDS011;20477;51.390;8.102;2023-05-10T12:59:27;13.57;;;8.15;;
34212;SDS011;20477;51.390;8.102;2023-05-10T13:01:56;16.58;;;9.00;;
34212;SDS011;20477;51.390;8.102;2023-05-10T13:04:25;9.63;;;6.75;;
34212;SDS011;20477;51.390;8.102;2023-05-10T13:06:53;13.90;;;7.68;;
34212;SDS011;20477;51.390;8.102;2023-05-10T13:09:24;14.30;;;7.68;;
34212;SDS011;20477;51.390;8.102;2023-05-10T13:11:52;12.07;;;7.28;;
34212;SDS011;20477;51.390;8.102;2023-05-10T13:14:20;11.63;;;7.43;;
34212;SDS011;20477;51.390;8.102;2023-05-10T13:16:50;12.55;;;7.75;;
34212;SDS011;20477;51.390;8.102;2023-05-10T13:19:18;11.50;;;7.78;;
34212;SDS011;20477;51.390;8.102;2023-05-10T13:21:46;10.40;;;7.25;;
34212;SDS011;20477;51.390;8.102;2023-05-10T13:24:14;14.63;;;8.57;;
34212;SDS011;20477;51.390;8.102;2023-05-10T13:26:43;14.93;;;9.15;;
34212;SDS011;20477;51.390;8.102;2023-05-10T13:29:11;14.15;;;8.63;;
34212;SDS011;20477;51.390;8.102;2023-05-10T13:31:39;16.98;;;9.75;;
34212;SDS011;20477;51.390;8.102;2023-05-10T13:34:09;17.58;;;9.52;;
34212;SDS011;20477;51.390;8.102;2023-05-10T13:36:37;13.48;;;8.73;;
34212;SDS011;20477;51.390;8.102;2023-05-10T13:39:05;17.67;;;9.23;;
34212;SDS011;20477;51.390;8.102;2023-05-10T13:41:34;15.90;;;9.73;;
34212;SDS011;20477;51.390;8.102;2023-05-10T13:44:03;13.13;;;8.45;;
34212;SDS011;20477;51.390;8.102;2023-05-10T13:46:31;13.73;;;8.60;;
34212;SDS011;20477;51.390;8.102;2023-05-10T13:48:59;14.90;;;9.02;;
34212;SDS011;20477;51.390;8.102;2023-05-10T13:51:30;17.33;;;10.60;;
34212;SDS011;20477;51.390;8.102;2023-05-10T13:53:58;16.95;;;11.60;;
34212;SDS011;20477;51.390;8.102;2023-05-10T13:56:27;15.23;;;10.63;;
34212;SDS011;20477;51.390;8.102;2023-05-10T13:58:55;18.33;;;11.75;;
34212;SDS011;20477;51.390;8.102;2023-05-10T14:01:24;15.35;;;11.35;;
34212;SDS011;20477;51.390;8.102;2023-05-10T14:03:52;20.65;;;12.48;;
34212;SDS011;20477;51.390;8.102;2023-05-10T14:06:21;24.42;;;12.30;;
34212;SDS011;20477;51.390;8.102;2023-05-10T14:08:50;22.17;;;13.20;;
34212;SDS011;20477;51.390;8.102;2023-05-10T14:11:18;21.08;;;12.43;;
34212;SDS011;20477;51.390;8.102;2023-05-10T14:13:49;23.33;;;12.52;;
34212;SDS011;20477;51.390;8.102;2023-05-10T14:16:17;18.25;;;10.93;;
34212;SDS011;20477;51.390;8.102;2023-05-10T14:18:46;18.42;;;11.88;;
34212;SDS011;20477;51.390;8.102;2023-05-10T14:21:14;19.52;;;12.02;;
34212;SDS011;20477;51.390;8.102;2023-05-10T14:23:42;23.45;;;11.90;;
34212;SDS011;20477;51.390;8.102;2023-05-10T14:26:12;19.10;;;11.77;;
34212;SDS011;20477;51.390;8.102;2023-05-10T14:28:40;17.55;;;11.73;;
34212;SDS011;20477;51.390;8.102;2023-05-10T14:31:08;13.75;;;11.15;;
34212;SDS011;20477;51.390;8.102;2023-05-10T14:33:36;20.08;;;11.40;;
34212;SDS011;20477;51.390;8.102;2023-05-10T14:36:05;19.60;;;11.68;;
34212;SDS011;20477;51.390;8.102;2023-05-10T14:38:33;17.83;;;11.10;;
34212;SDS011;20477;51.390;8.102;2023-05-10T14:41:01;18.40;;;10.02;;
34212;SDS011;20477;51.390;8.102;2023-05-10T14:43:31;18.50;;;11.52;;
34212;SDS011;20477;51.390;8.102;2023-05-10T14:45:59;19.67;;;11.63;;
34212;SDS011;20477;51.390;8.102;2023-05-10T14:48:28;21.45;;;11.30;;
34212;SDS011;20477;51.390;8.102;2023-05-10T14:50:56;17.10;;;10.75;;
34212;SDS011;20477;51.390;8.102;2023-05-10T14:53:24;16.63;;;11.73;;
34212;SDS011;20477;51.390;8.102;2023-05-10T14:55:52;20.40;;;11.27;;
34212;SDS011;20477;51.390;8.102;2023-05-10T14:58:21;23.65;;;12.10;;
34212;SDS011;20477;51.390;8.102;2023-05-10T15:00:51;13.68;;;10.98;;
34212;SDS011;20477;51.390;8.102;2023-05-10T15:03:20;20.42;;;12.35;;
34212;SDS011;20477;51.390;8.102;2023-05-10T15:05:49;22.48;;;12.52;;